Time;durP1;ratioP1;P1;durP2;ratioP2;P2;SDS_P1;SDS_P2;PMS_P1;PMS_P2;Temp;Humidity;BMP_temperature;BMP_pressure;BME280_temperature;BME280_humidity;BME280_pressure;Samples;Min_cycle;Max_cycle;Signal;HPM_P1;HPM_P2
2023/03/13 00:00:56;;;;;;;30.90;7.87;;;7.10;99.90;;;;;;5044427;28;20214;-46
2023/03/13 00:03:25;;;;;;;31.30;7.07;;;7.10;99.90;;;;;;5036442;28;20265;-51
2023/03/13 00:05:56;;;;;;;23.53;7.23;;;7.10;99.90;;;;;;5042456;28;20210;-51
2023/03/13 00:08:23;;;;;;;26.10;7.47;;;7.10;99.90;;;;;;5035722;28;20307;-47
2023/03/13 00:10:49;;;;;;;25.43;7.10;;;7.20;99.90;;;;;;5052278;28;20219;-50
2023/03/13 00:13:16;;;;;;;30.47;6.53;;;7.10;99.90;;;;;;5038816;28;20188;-47
2023/03/13 00:15:43;;;;;;;24.83;7.37;;;7.10;99.90;;;;;;5043282;28;20257;-50
2023/03/13 00:18:10;;;;;;;22.93;7.03;;;7.10;99.90;;;;;;5042295;28;20206;-53
2023/03/13 00:20:37;;;;;;;23.63;6.60;;;7.10;99.90;;;;;;5042502;28;20211;-49
2023/03/13 00:23:05;;;;;;;19.50;6.60;;;7.10;99.90;;;;;;5038780;28;20221;-53
2023/03/13 00:25:32;;;;;;;20.63;5.67;;;7.10;99.90;;;;;;5044991;28;20985;-50
2023/03/13 00:27:58;;;;;;;22.63;6.73;;;7.10;99.90;;;;;;5046590;28;20203;-51
2023/03/13 00:30:25;;;;;;;16.07;6.80;;;7.10;99.90;;;;;;5044095;28;20206;-47
2023/03/13 00:32:52;;;;;;;24.27;6.03;;;7.10;99.90;;;;;;5043679;28;20208;-47
2023/03/13 00:35:19;;;;;;;20.20;6.43;;;7.00;99.90;;;;;;5041267;28;20976;-46
2023/03/13 00:37:48;;;;;;;26.13;6.47;;;7.00;99.90;;;;;;5046529;28;20546;-46
2023/03/13 00:40:15;;;;;;;17.27;5.70;;;7.00;99.90;;;;;;5029022;28;20218;-52
2023/03/13 00:42:42;;;;;;;23.07;6.20;;;7.00;99.90;;;;;;5055887;28;20222;-46
2023/03/13 00:45:10;;;;;;;30.37;6.33;;;6.90;99.90;;;;;;5043093;28;20691;-52
2023/03/13 00:47:36;;;;;;;22.20;5.87;;;6.90;99.90;;;;;;5042539;28;20218;-48
2023/03/13 00:50:03;;;;;;;16.23;5.57;;;6.90;99.90;;;;;;5040743;28;20642;-50
2023/03/13 00:52:30;;;;;;;25.30;6.00;;;6.90;99.90;;;;;;5043892;28;20282;-46
2023/03/13 00:54:59;;;;;;;23.80;6.03;;;7.00;99.90;;;;;;5046695;28;20716;-52
2023/03/13 00:57:26;;;;;;;29.33;6.50;;;7.00;99.90;;;;;;5043788;28;20226;-47
2023/03/13 00:59:53;;;;;;;16.57;6.23;;;7.00;99.90;;;;;;5045990;28;20238;-47
2023/03/13 01:02:20;;;;;;;22.00;5.67;;;7.00;99.90;;;;;;5042061;28;20212;-46
2023/03/13 01:04:47;;;;;;;19.97;7.33;;;7.00;99.90;;;;;;5045324;28;20272;-46
2023/03/13 01:07:13;;;;;;;25.27;5.97;;;7.10;99.90;;;;;;5042340;28;20209;-52
2023/03/13 01:09:41;;;;;;;23.20;6.60;;;7.10;99.90;;;;;;5034199;28;20296;-48
2023/03/13 01:12:09;;;;;;;31.60;6.87;;;7.20;99.90;;;;;;5047461;28;20203;-52
2023/03/13 01:14:36;;;;;;;22.57;6.90;;;7.20;99.90;;;;;;5044890;28;20222;-49
2023/03/13 01:17:03;;;;;;;20.57;5.77;;;7.20;99.90;;;;;;5044443;28;20204;-51
2023/03/13 01:19:30;;;;;;;19.37;6.00;;;7.20;99.90;;;;;;5039868;28;20210;-48
2023/03/13 01:21:57;;;;;;;18.40;6.07;;;7.20;99.90;;;;;;5044134;28;20269;-50
2023/03/13 01:24:24;;;;;;;21.00;7.00;;;7.30;99.90;;;;;;5044206;28;20223;-46
2023/03/13 01:26:51;;;;;;;36.50;7.10;;;7.30;99.90;;;;;;5037839;28;20581;-46
2023/03/13 01:29:22;;;;;;;22.13;5.67;;;7.30;99.90;;;;;;5044446;28;20195;-48
2023/03/13 01:31:49;;;;;;;23.20;7.30;;;7.30;99.90;;;;;;5045374;28;20195;-51
2023/03/13 01:34:16;;;;;;;22.30;6.13;;;7.30;99.90;;;;;;5034200;28;22526;-48
2023/03/13 01:36:44;;;;;;;20.37;6.40;;;7.40;99.90;;;;;;5050479;28;20231;-47
2023/03/13 01:39:11;;;;;;;22.50;6.63;;;7.40;99.90;;;;;;5040423;28;20199;-53
2023/03/13 01:41:37;;;;;;;17.00;6.67;;;7.40;99.90;;;;;;5040814;28;20214;-49
2023/03/13 01:44:04;;;;;;;29.13;7.13;;;7.50;99.90;;;;;;5046109;28;20325;-48
2023/03/13 01:46:38;;;;;;;26.90;7.10;;;7.50;99.90;;;;;;5043484;28;20211;-49
2023/03/13 01:49:17;;;;;;;27.37;6.47;;;7.50;99.90;;;;;;5037433;28;20207;-50
2023/03/13 01:52:01;;;;;;;29.40;6.60;;;7.50;99.90;;;;;;5061517;28;20825;-50
2023/03/13 01:54:31;;;;;;;23.43;6.93;;;7.50;99.90;;;;;;5053162;28;20238;-48
2023/03/13 01:57:03;;;;;;;27.13;6.27;;;7.50;99.90;;;;;;5037421;28;20211;-53
2023/03/13 01:59:34;;;;;;;28.80;7.43;;;7.60;99.90;;;;;;5048072;28;20205;-47
2023/03/13 02:02:08;;;;;;;23.17;6.00;;;7.60;99.90;;;;;;5041658;28;20223;-53
2023/03/13 02:04:38;;;;;;;30.77;6.03;;;7.60;99.90;;;;;;5043651;28;20237;-46
2023/03/13 02:07:09;;;;;;;20.30;6.70;;;7.60;99.90;;;;;;5045594;28;20211;-53
2023/03/13 02:09:41;;;;;;;19.70;6.00;;;7.60;99.90;;;;;;5042900;28;20293;-48
2023/03/13 02:12:12;;;;;;;26.43;6.33;;;7.60;99.90;;;;;;5026662;28;20203;-52
2023/03/13 02:14:43;;;;;;;24.30;6.90;;;7.60;99.90;;;;;;5049798;28;20244;-49
2023/03/13 02:17:11;;;;;;;17.87;6.30;;;7.60;99.90;;;;;;5042793;28;20302;-50
2023/03/13 02:19:42;;;;;;;27.83;7.50;;;7.60;99.90;;;;;;5044460;28;20203;-45
2023/03/13 02:22:18;;;;;;;33.10;7.63;;;7.60;99.90;;;;;;5040408;28;20227;-51
2023/03/13 02:24:51;;;;;;;23.93;6.23;;;7.60;99.90;;;;;;5052645;28;20332;-45
2023/03/13 02:27:21;;;;;;;30.93;6.57;;;7.60;99.90;;;;;;5030322;28;22071;-47
2023/03/13 02:29:49;;;;;;;30.60;7.50;;;7.60;99.90;;;;;;5049784;28;20207;-45
2023/03/13 02:32:16;;;;;;;26.40;6.67;;;7.60;99.90;;;;;;5038194;28;20199;-45
2023/03/13 02:34:45;;;;;;;28.70;6.93;;;7.70;99.90;;;;;;5042585;28;20238;-46
2023/03/13 02:37:14;;;;;;;27.43;6.73;;;7.70;99.90;;;;;;5036331;28;20294;-51
2023/03/13 02:39:45;;;;;;;17.73;6.37;;;7.70;99.90;;;;;;5042337;28;20209;-48
2023/03/13 02:42:14;;;;;;;16.77;5.47;;;7.70;99.90;;;;;;5039096;28;20241;-50
2023/03/13 02:44:45;;;;;;;22.20;5.77;;;7.70;99.90;;;;;;5031884;28;20254;-46
2023/03/13 02:47:12;;;;;;;31.37;6.30;;;7.70;99.90;;;;;;5044082;28;20257;-49
2023/03/13 02:49:39;;;;;;;18.23;5.63;;;7.70;99.90;;;;;;5046632;28;20351;-45
2023/03/13 02:52:13;;;;;;;16.10;5.37;;;7.70;99.90;;;;;;5037070;28;20714;-52
2023/03/13 02:54:45;;;;;;;20.63;5.90;;;7.70;99.90;;;;;;5046221;28;20225;-47
2023/03/13 02:57:12;;;;;;;17.73;5.17;;;7.80;99.90;;;;;;5044567;28;20203;-51
2023/03/13 02:59:40;;;;;;;24.13;5.07;;;7.80;99.90;;;;;;5030166;28;20277;-47
2023/03/13 03:02:08;;;;;;;31.50;6.10;;;7.80;99.90;;;;;;5049932;28;20205;-51
2023/03/13 03:04:36;;;;;;;21.37;5.57;;;7.80;99.90;;;;;;5041433;28;20227;-48
2023/03/13 03:07:06;;;;;;;17.13;5.23;;;7.80;99.90;;;;;;5041427;28;20227;-48
2023/03/13 03:09:33;;;;;;;21.90;5.27;;;7.80;99.90;;;;;;5047410;28;20200;-49
2023/03/13 03:12:05;;;;;;;23.70;6.17;;;7.80;99.90;;;;;;5059436;28;20198;-54
2023/03/13 03:14:33;;;;;;;24.87;5.37;;;7.80;99.90;;;;;;5059890;28;20249;-46
2023/03/13 03:17:00;;;;;;;26.87;5.33;;;7.80;99.90;;;;;;5035195;28;20700;-50
2023/03/13 03:19:28;;;;;;;24.30;5.60;;;7.80;99.90;;;;;;5057417;28;20251;-47
2023/03/13 03:21:55;;;;;;;30.37;6.17;;;7.80;99.90;;;;;;5056658;28;20226;-52
2023/03/13 03:24:22;;;;;;;23.13;5.70;;;7.80;99.90;;;;;;5044178;28;20227;-46
2023/03/13 03:26:49;;;;;;;25.90;5.57;;;7.90;99.90;;;;;;5044949;28;20634;-45
2023/03/13 03:29:23;;;;;;;32.50;6.50;;;7.80;99.90;;;;;;5038876;28;20198;-48
2023/03/13 03:31:52;;;;;;;24.47;6.20;;;7.90;99.90;;;;;;5033571;28;20645;-48
2023/03/13 03:34:20;;;;;;;19.97;5.40;;;7.80;99.90;;;;;;5044959;28;20217;-46
2023/03/13 03:36:49;;;;;;;19.93;5.03;;;7.80;99.90;;;;;;5042026;28;20203;-46
2023/03/13 03:39:16;;;;;;;22.77;5.70;;;7.80;99.90;;;;;;5036965;28;20330;-46
2023/03/13 03:41:43;;;;;;;22.67;4.97;;;7.90;99.90;;;;;;5042019;28;20210;-47
2023/03/13 03:44:11;;;;;;;23.07;4.90;;;7.80;99.90;;;;;;5038520;28;20238;-50
2023/03/13 03:46:50;;;;;;;26.27;5.90;;;7.80;99.90;;;;;;5033821;28;20214;-46
2023/03/13 03:49:17;;;;;;;24.93;5.00;;;7.90;99.90;;;;;;5040534;28;20203;-46
2023/03/13 03:51:43;;;;;;;17.43;4.93;;;7.90;99.90;;;;;;5043568;28;20207;-48
2023/03/13 03:54:12;;;;;;;21.53;5.40;;;7.90;99.90;;;;;;5047222;28;20712;-50
2023/03/13 03:56:39;;;;;;;19.93;4.37;;;7.90;99.90;;;;;;5051516;28;20203;-46
2023/03/13 03:59:07;;;;;;;19.23;4.67;;;7.90;99.90;;;;;;5044031;28;20524;-49
2023/03/13 04:01:47;;;;;;;24.93;4.67;;;7.90;99.90;;;;;;5036016;28;20348;-45
2023/03/13 04:04:19;;;;;;;18.40;4.43;;;7.90;99.90;;;;;;5054385;28;20306;-51
2023/03/13 04:06:49;;;;;;;25.37;5.63;;;8.00;99.90;;;;;;5046103;28;20229;-47
2023/03/13 04:09:18;;;;;;;16.13;4.13;;;7.90;99.90;;;;;;5038490;28;20302;-48
2023/03/13 04:11:45;;;;;;;19.73;5.70;;;8.00;99.90;;;;;;5049044;28;20203;-46
2023/03/13 04:14:12;;;;;;;25.60;5.33;;;7.90;99.90;;;;;;5042195;28;20269;-52
2023/03/13 04:16:39;;;;;;;22.27;5.10;;;7.90;99.90;;;;;;5045823;28;20670;-46
2023/03/13 04:19:06;;;;;;;22.93;5.30;;;7.90;99.90;;;;;;5038557;28;20300;-53
2023/03/13 04:21:33;;;;;;;23.50;6.70;;;7.90;99.90;;;;;;5045621;28;20329;-48
2023/03/13 04:24:04;;;;;;;22.23;5.23;;;7.90;99.90;;;;;;5047444;28;20686;-53
2023/03/13 04:26:34;;;;;;;18.27;5.03;;;7.90;99.90;;;;;;5047203;28;20210;-46
2023/03/13 04:29:01;;;;;;;19.83;5.27;;;7.90;99.90;;;;;;5044301;28;20276;-53
2023/03/13 04:31:47;;;;;;;19.80;4.97;;;7.90;99.90;;;;;;5058417;28;20252;-46
2023/03/13 04:34:27;;;;;;;18.20;4.27;;;7.90;99.90;;;;;;5041516;28;20215;-48
2023/03/13 04:37:06;;;;;;;19.00;5.30;;;7.90;99.90;;;;;;5046223;28;20206;-50
2023/03/13 04:39:40;;;;;;;25.07;4.30;;;7.90;99.90;;;;;;5046635;28;20225;-46
2023/03/13 04:42:24;;;;;;;28.53;6.07;;;7.90;99.90;;;;;;5054695;28;20221;-48
2023/03/13 04:45:13;;;;;;;20.33;4.80;;;7.90;99.90;;;;;;5042548;28;20229;-49
2023/03/13 04:48:01;;;;;;;19.63;6.07;;;7.90;99.90;;;;;;5033275;28;20361;-52
2023/03/13 04:50:39;;;;;;;20.83;4.77;;;7.90;99.90;;;;;;5054463;28;20199;-49
2023/03/13 04:53:12;;;;;;;22.47;5.53;;;7.90;99.90;;;;;;5043903;28;20206;-53
2023/03/13 04:55:49;;;;;;;19.57;5.03;;;7.90;99.90;;;;;;5053468;28;20228;-45
2023/03/13 04:58:36;;;;;;;21.20;5.00;;;7.90;99.90;;;;;;5050112;28;20711;-49
2023/03/13 05:01:13;;;;;;;13.23;4.10;;;7.90;99.90;;;;;;5050264;28;20203;-52
2023/03/13 05:03:53;;;;;;;19.83;5.20;;;7.90;99.90;;;;;;5043367;28;20750;-48
2023/03/13 05:06:44;;;;;;;25.47;5.30;;;7.90;99.90;;;;;;5045397;28;20213;-52
2023/03/13 05:09:38;;;;;;;19.80;4.40;;;7.80;99.90;;;;;;5058766;28;20233;-53
2023/03/13 05:12:17;;;;;;;12.90;4.43;;;7.80;99.90;;;;;;5061522;28;20981;-45
2023/03/13 05:14:56;;;;;;;15.53;4.73;;;7.80;99.90;;;;;;5063429;28;20225;-49
2023/03/13 05:17:52;;;;;;;17.83;5.10;;;7.80;99.90;;;;;;5032737;28;22947;-49
2023/03/13 05:20:40;;;;;;;16.67;4.83;;;7.80;99.90;;;;;;5054003;28;20207;-49
2023/03/13 05:23:30;;;;;;;19.43;5.00;;;7.80;99.90;;;;;;5050865;28;20211;-50
2023/03/13 05:26:05;;;;;;;15.90;4.80;;;7.80;99.90;;;;;;5050036;28;20198;-47
2023/03/13 05:28:43;;;;;;;22.13;5.97;;;7.80;99.90;;;;;;5044479;28;20740;-50
2023/03/13 05:31:34;;;;;;;20.47;5.17;;;7.80;99.90;;;;;;5057755;28;20562;-52
2023/03/13 05:34:22;;;;;;;11.77;4.07;;;7.80;99.90;;;;;;5045089;28;20207;-48
2023/03/13 05:36:58;;;;;;;18.93;4.03;;;7.80;99.90;;;;;;5051927;28;20906;-47
2023/03/13 05:39:37;;;;;;;15.13;4.63;;;7.90;99.90;;;;;;5041646;28;20214;-53
2023/03/13 05:42:20;;;;;;;16.80;4.40;;;7.80;99.90;;;;;;5059420;28;20206;-49
2023/03/13 05:45:13;;;;;;;16.67;4.50;;;7.80;99.90;;;;;;5050386;28;20235;-45
2023/03/13 05:47:52;;;;;;;13.87;4.30;;;7.80;99.90;;;;;;5046130;28;20210;-49
2023/03/13 05:50:40;;;;;;;11.27;4.67;;;7.90;99.90;;;;;;5048384;28;20214;-52
2023/03/13 05:53:34;;;;;;;17.00;4.10;;;7.90;99.90;;;;;;5058856;28;20281;-51
2023/03/13 05:56:25;;;;;;;12.73;3.97;;;7.80;99.90;;;;;;5060267;28;20203;-48
2023/03/13 05:59:19;;;;;;;12.27;3.43;;;7.80;99.90;;;;;;5045474;28;20263;-50
2023/03/13 06:01:56;;;;;;;11.43;3.40;;;7.80;99.90;;;;;;5044888;28;20257;-49
2023/03/13 06:04:46;;;;;;;9.57;3.37;;;7.90;99.90;;;;;;5030458;28;20373;-48
2023/03/13 06:07:13;;;;;;;10.07;3.33;;;7.90;99.90;;;;;;5050317;28;20575;-53
2023/03/13 06:09:40;;;;;;;11.67;2.87;;;7.90;99.90;;;;;;5045196;28;20566;-44
2023/03/13 06:12:09;;;;;;;12.23;3.40;;;7.90;99.90;;;;;;5048711;28;20207;-48
2023/03/13 06:14:36;;;;;;;10.57;3.27;;;7.90;99.90;;;;;;5051968;28;20221;-46
2023/03/13 06:17:12;;;;;;;8.20;2.70;;;8.00;99.90;;;;;;5049175;28;20202;-49
2023/03/13 06:19:41;;;;;;;9.67;2.80;;;8.00;99.90;;;;;;5025871;28;20206;-48
2023/03/13 06:22:09;;;;;;;6.23;2.43;;;8.00;99.90;;;;;;5047992;28;20191;-46
2023/03/13 06:24:36;;;;;;;5.60;2.50;;;8.00;99.90;;;;;;5045573;28;20214;-53
2023/03/13 06:27:03;;;;;;;5.87;2.27;;;8.10;99.90;;;;;;5047271;28;20203;-45
2023/03/13 06:29:30;;;;;;;5.50;2.13;;;8.10;99.90;;;;;;5054018;28;20268;-53
2023/03/13 06:31:56;;;;;;;5.20;2.03;;;8.10;99.90;;;;;;5053652;28;20218;-46
2023/03/13 06:34:23;;;;;;;7.20;2.77;;;8.20;99.90;;;;;;5036063;28;20219;-49
2023/03/13 06:36:50;;;;;;;5.07;1.97;;;8.20;99.90;;;;;;5047715;28;20202;-48
2023/03/13 06:39:18;;;;;;;4.70;2.30;;;8.30;99.90;;;;;;5047191;28;20206;-47
2023/03/13 06:41:45;;;;;;;4.90;1.40;;;8.30;99.90;;;;;;5044433;28;20199;-45
2023/03/13 06:44:12;;;;;;;3.50;1.30;;;8.40;99.90;;;;;;5057079;28;20566;-49
2023/03/13 06:46:39;;;;;;;2.60;1.33;;;8.40;99.90;;;;;;5044848;28;20973;-46
2023/03/13 06:49:06;;;;;;;6.07;2.40;;;8.50;99.90;;;;;;5040212;28;20756;-50
2023/03/13 06:51:33;;;;;;;2.60;1.40;;;8.60;99.90;;;;;;5047895;28;20604;-51
2023/03/13 06:54:01;;;;;;;3.77;1.27;;;8.70;99.90;;;;;;5056805;28;20219;-47
2023/03/13 06:56:29;;;;;;;4.60;1.90;;;8.70;99.90;;;;;;5040866;28;20207;-49
2023/03/13 06:59:18;;;;;;;3.27;1.43;;;8.80;99.90;;;;;;5054042;28;20320;-50
2023/03/13 07:01:45;;;;;;;2.50;1.40;;;8.80;99.90;;;;;;5043135;28;20226;-46
2023/03/13 07:04:13;;;;;;;3.20;1.93;;;8.90;99.90;;;;;;5049620;28;20227;-45
2023/03/13 07:06:40;;;;;;;3.17;1.80;;;9.00;99.90;;;;;;5028579;28;20221;-49
2023/03/13 07:09:07;;;;;;;3.80;2.13;;;9.00;99.90;;;;;;5056825;28;20244;-45
2023/03/13 07:11:36;;;;;;;3.43;1.20;;;9.00;99.90;;;;;;5036508;28;20294;-48
2023/03/13 07:14:03;;;;;;;6.60;1.80;;;9.10;99.90;;;;;;5052830;28;20340;-47
2023/03/13 07:16:29;;;;;;;5.40;2.10;;;9.10;99.90;;;;;;5050861;28;20696;-51
2023/03/13 07:19:18;;;;;;;6.43;2.20;;;9.20;99.90;;;;;;5044864;28;20210;-51
2023/03/13 07:22:06;;;;;;;4.07;2.13;;;9.20;99.90;;;;;;5044165;28;20209;-48
2023/03/13 07:24:33;;;;;;;4.63;1.90;;;9.20;99.90;;;;;;5052568;28;20229;-49
2023/03/13 07:27:02;;;;;;;4.53;2.10;;;9.20;99.90;;;;;;5043267;28;20202;-50
2023/03/13 07:29:29;;;;;;;4.53;1.67;;;9.30;99.90;;;;;;5051602;28;20210;-46
2023/03/13 07:31:56;;;;;;;6.77;2.90;;;9.30;99.90;;;;;;5048363;28;20203;-50
2023/03/13 07:34:23;;;;;;;2.53;1.70;;;9.30;99.90;;;;;;5048879;28;20214;-45
2023/03/13 07:36:49;;;;;;;3.73;2.20;;;9.30;99.90;;;;;;5039949;28;20232;-48
2023/03/13 07:39:16;;;;;;;6.60;2.40;;;9.40;99.90;;;;;;5049926;28;20194;-45
2023/03/13 07:41:43;;;;;;;3.03;2.23;;;9.30;99.90;;;;;;5047706;28;20268;-46
2023/03/13 07:44:17;;;;;;;4.23;2.30;;;9.30;99.90;;;;;;5042726;28;20527;-48
2023/03/13 07:46:43;;;;;;;5.43;2.27;;;9.40;99.90;;;;;;5051553;28;20285;-45
2023/03/13 07:49:10;;;;;;;3.67;1.70;;;9.40;99.90;;;;;;5036842;28;20199;-47
2023/03/13 07:51:37;;;;;;;2.37;2.13;;;9.40;99.90;;;;;;5036976;28;20303;-47
2023/03/13 07:54:04;;;;;;;6.93;2.80;;;9.50;99.90;;;;;;5042456;28;20218;-54
2023/03/13 07:56:32;;;;;;;4.27;2.60;;;9.50;99.90;;;;;;5043213;28;20195;-45
2023/03/13 07:58:58;;;;;;;5.53;2.63;;;9.60;99.90;;;;;;5042665;28;20685;-49
2023/03/13 08:01:27;;;;;;;5.70;3.00;;;9.60;99.90;;;;;;5044379;28;20216;-47
2023/03/13 08:03:54;;;;;;;6.03;3.10;;;9.70;99.90;;;;;;5040974;28;20223;-50
2023/03/13 08:06:23;;;;;;;4.00;2.47;;;9.70;99.90;;;;;;5035229;28;20276;-51
2023/03/13 08:08:50;;;;;;;6.40;2.57;;;9.70;99.90;;;;;;5042797;28;21301;-46
2023/03/13 08:11:19;;;;;;;4.53;2.97;;;9.70;99.90;;;;;;5051805;28;20233;-51
2023/03/13 08:13:46;;;;;;;3.87;3.00;;;9.80;99.90;;;;;;5044308;28;20298;-47
2023/03/13 08:16:15;;;;;;;5.93;3.37;;;9.90;99.90;;;;;;5045780;28;20274;-47
2023/03/13 08:18:44;;;;;;;7.30;3.53;;;9.90;99.90;;;;;;5042002;28;20211;-45
2023/03/13 08:21:13;;;;;;;4.40;2.90;;;10.00;99.90;;;;;;5044122;28;20568;-46
2023/03/13 08:23:40;;;;;;;4.93;3.13;;;10.10;99.90;;;;;;5034885;28;20230;-46
2023/03/13 08:26:09;;;;;;;7.47;3.97;;;10.10;99.90;;;;;;5043794;28;20203;-46
2023/03/13 08:28:39;;;;;;;6.13;3.70;;;10.20;99.90;;;;;;5035466;28;21381;-47
2023/03/13 08:31:09;;;;;;;3.80;3.13;;;10.20;99.90;;;;;;5052941;28;20202;-53
2023/03/13 08:33:59;;;;;;;13.00;4.23;;;10.30;99.90;;;;;;5039327;28;20653;-47
2023/03/13 08:36:30;;;;;;;5.17;4.13;;;10.40;99.90;;;;;;5049836;28;20195;-47
2023/03/13 08:39:00;;;;;;;9.03;3.73;;;10.40;99.90;;;;;;5039295;28;20273;-50
2023/03/13 08:41:28;;;;;;;6.93;3.23;;;10.50;99.90;;;;;;5040839;28;20210;-49
2023/03/13 08:43:57;;;;;;;4.67;2.77;;;10.50;99.90;;;;;;5043463;28;20234;-49
2023/03/13 08:46:24;;;;;;;8.17;3.73;;;10.60;99.90;;;;;;5046716;28;20194;-45
2023/03/13 08:48:51;;;;;;;12.53;4.63;;;10.60;99.90;;;;;;5044115;28;20297;-48
2023/03/13 08:51:20;;;;;;;4.63;3.40;;;10.70;99.90;;;;;;5044431;28;20196;-52
2023/03/13 08:54:06;;;;;;;6.50;3.97;;;10.70;99.90;;;;;;5036705;28;20602;-53
2023/03/13 08:56:33;;;;;;;5.23;3.57;;;10.80;99.90;;;;;;5045940;28;20214;-50
2023/03/13 08:59:02;;;;;;;4.37;3.73;;;10.80;99.90;;;;;;5049002;28;20277;-48
2023/03/13 09:01:31;;;;;;;6.23;3.73;;;10.80;99.90;;;;;;5044880;28;21051;-52
2023/03/13 09:03:59;;;;;;;7.53;4.33;;;10.90;99.90;;;;;;5050368;28;20239;-50
2023/03/13 09:06:27;;;;;;;5.33;4.43;;;10.90;99.90;;;;;;5046999;28;20191;-48
2023/03/13 09:08:56;;;;;;;6.37;4.27;;;11.00;99.90;;;;;;5056772;28;20286;-48
2023/03/13 09:11:25;;;;;;;4.27;3.87;;;11.00;99.90;;;;;;5037881;28;20199;-50
2023/03/13 09:13:53;;;;;;;4.17;3.87;;;11.00;99.90;;;;;;5042186;28;20223;-50
2023/03/13 09:16:22;;;;;;;5.43;4.60;;;11.00;99.90;;;;;;5051863;28;20923;-49
2023/03/13 09:18:51;;;;;;;4.93;4.13;;;11.10;99.90;;;;;;5055472;28;20195;-52
2023/03/13 09:21:21;;;;;;;6.23;4.83;;;11.10;99.90;;;;;;5044323;28;20299;-50
2023/03/13 09:23:50;;;;;;;5.40;4.90;;;11.20;99.90;;;;;;5051636;28;20223;-54
2023/03/13 09:26:18;;;;;;;4.47;4.07;;;11.30;99.90;;;;;;5035922;28;20219;-52
2023/03/13 09:28:45;;;;;;;5.23;4.73;;;11.30;99.90;;;;;;5045333;28;20203;-49
2023/03/13 09:31:13;;;;;;;6.70;5.23;;;11.30;99.90;;;;;;5043028;28;20282;-50
2023/03/13 09:33:40;;;;;;;6.60;4.77;;;11.40;99.90;;;;;;5050091;28;20413;-47
2023/03/13 09:36:08;;;;;;;7.03;5.23;;;11.40;99.90;;;;;;5047314;28;20609;-55
2023/03/13 09:38:35;;;;;;;8.10;5.30;;;11.40;99.90;;;;;;5050245;28;20203;-50
2023/03/13 09:41:23;;;;;;;4.73;4.33;;;11.50;99.90;;;;;;5037367;28;20264;-54
2023/03/13 09:43:54;;;;;;;9.80;5.60;;;11.50;99.90;;;;;;5049184;28;20226;-52
2023/03/13 09:46:25;;;;;;;6.00;5.03;;;11.50;99.90;;;;;;5041179;28;20335;-50
2023/03/13 09:48:57;;;;;;;7.30;5.10;;;11.60;99.90;;;;;;5049161;28;20252;-50
2023/03/13 09:51:31;;;;;;;7.47;5.73;;;11.60;99.90;;;;;;5038129;28;21062;-49
2023/03/13 09:54:25;;;;;;;5.67;4.87;;;11.60;99.90;;;;;;5047567;28;20817;-52
2023/03/13 09:56:57;;;;;;;5.57;5.00;;;11.70;99.90;;;;;;5033606;28;20211;-48
2023/03/13 09:59:51;;;;;;;7.10;4.90;;;11.70;99.90;;;;;;5049400;28;20226;-48
2023/03/13 10:02:26;;;;;;;5.70;5.03;;;11.80;99.90;;;;;;5041888;28;20220;-47
2023/03/13 10:05:00;;;;;;;4.80;4.17;;;11.80;99.90;;;;;;5045244;28;20703;-52
2023/03/13 10:07:50;;;;;;;7.37;5.00;;;11.80;99.90;;;;;;5040341;28;20225;-54
2023/03/13 10:10:18;;;;;;;7.83;5.57;;;11.80;99.90;;;;;;5049007;28;20230;-50
2023/03/13 10:12:48;;;;;;;4.90;4.27;;;11.90;99.90;;;;;;5034764;28;20885;-50
2023/03/13 10:15:30;;;;;;;6.23;5.43;;;11.90;99.90;;;;;;5046889;28;20217;-50
2023/03/13 10:18:20;;;;;;;5.03;4.23;;;11.90;99.90;;;;;;5049563;28;20214;-46
2023/03/13 10:20:49;;;;;;;7.87;4.83;;;11.90;99.90;;;;;;5039816;28;21267;-52
2023/03/13 10:23:20;;;;;;;7.27;4.50;;;12.00;99.90;;;;;;5041618;28;20922;-47
2023/03/13 10:25:47;;;;;;;7.23;4.67;;;12.00;99.90;;;;;;5046191;28;20237;-48
2023/03/13 10:28:18;;;;;;;5.50;5.00;;;12.10;99.90;;;;;;5044024;28;20616;-47
2023/03/13 10:30:50;;;;;;;5.67;4.87;;;12.10;99.90;;;;;;5043060;28;20204;-48
2023/03/13 10:33:37;;;;;;;5.13;4.23;;;12.10;99.90;;;;;;5043793;28;20264;-51
2023/03/13 10:36:07;;;;;;;6.93;4.50;;;12.10;99.90;;;;;;5045042;28;20253;-48
2023/03/13 10:38:44;;;;;;;4.57;4.17;;;12.20;99.90;;;;;;5037173;28;20293;-55
2023/03/13 10:41:27;;;;;;;6.87;4.43;;;12.30;99.90;;;;;;5050309;28;20207;-48
2023/03/13 10:43:59;;;;;;;4.83;4.40;;;12.30;99.90;;;;;;5038856;28;20233;-53
2023/03/13 10:46:28;;;;;;;5.13;3.73;;;12.40;99.90;;;;;;5043707;28;20256;-50
2023/03/13 10:48:55;;;;;;;5.00;3.70;;;12.50;99.90;;;;;;5047384;28;20195;-49
2023/03/13 10:51:24;;;;;;;5.63;4.50;;;12.60;99.90;;;;;;5044660;28;20214;-52
2023/03/13 10:53:52;;;;;;;4.93;4.47;;;12.80;99.90;;;;;;5039991;28;20223;-51
2023/03/13 10:56:25;;;;;;;5.87;4.57;;;12.90;99.90;;;;;;5055539;28;20206;-47
2023/03/13 10:59:24;;;;;;;8.53;3.77;;;12.90;99.90;;;;;;5038053;28;20225;-49
2023/03/13 11:01:52;;;;;;;4.60;4.13;;;13.00;99.90;;;;;;5046334;28;20293;-50
2023/03/13 11:04:21;;;;;;;3.23;2.93;;;13.00;99.90;;;;;;5044221;28;20234;-47
2023/03/13 11:06:52;;;;;;;4.17;3.60;;;13.00;99.90;;;;;;5042200;28;20235;-48
2023/03/13 11:09:20;;;;;;;3.93;3.50;;;12.90;99.90;;;;;;5047396;28;20654;-51
2023/03/13 11:11:48;;;;;;;3.53;3.13;;;12.90;99.90;;;;;;5052201;28;20198;-51
2023/03/13 11:14:17;;;;;;;4.17;3.40;;;12.90;99.90;;;;;;5039241;28;20225;-50
2023/03/13 11:16:49;;;;;;;2.97;2.77;;;12.90;99.90;;;;;;5047277;28;20195;-49
2023/03/13 11:19:37;;;;;;;3.50;3.20;;;13.00;99.90;;;;;;5044622;28;20222;-49
2023/03/13 11:22:30;;;;;;;4.13;2.77;;;13.10;99.90;;;;;;5046901;28;20230;-52
2023/03/13 11:25:14;;;;;;;3.43;2.50;;;13.20;99.90;;;;;;5039115;28;20218;-51
2023/03/13 11:27:47;;;;;;;3.70;2.07;;;13.40;99.90;;;;;;5048182;28;20199;-52
2023/03/13 11:30:25;;;;;;;4.30;2.40;;;13.60;99.90;;;;;;5041039;28;20715;-48
2023/03/13 11:32:56;;;;;;;4.33;2.90;;;13.70;99.90;;;;;;5045914;28;20202;-48
2023/03/13 11:35:37;;;;;;;5.47;3.30;;;13.80;99.90;;;;;;5043777;28;20229;-53
2023/03/13 11:38:09;;;;;;;3.00;2.30;;;14.00;99.90;;;;;;5045399;28;20696;-48
2023/03/13 11:40:45;;;;;;;2.23;2.03;;;14.00;99.90;;;;;;5039952;28;20214;-53
2023/03/13 11:43:25;;;;;;;2.93;2.20;;;14.10;99.90;;;;;;5047260;28;20202;-50
2023/03/13 11:46:21;;;;;;;3.50;2.07;;;14.20;99.90;;;;;;5034507;28;20303;-48
2023/03/13 11:49:15;;;;;;;3.27;1.43;;;14.20;99.90;;;;;;5047735;28;20288;-48
2023/03/13 11:51:54;;;;;;;5.20;1.67;;;14.30;99.90;;;;;;5040443;28;20206;-49
2023/03/13 11:54:40;;;;;;;2.50;1.37;;;14.40;99.90;;;;;;5050008;28;20253;-51
2023/03/13 11:57:12;;;;;;;1.93;1.20;;;14.70;99.90;;;;;;5034117;28;20203;-46
2023/03/13 11:59:49;;;;;;;1.77;1.40;;;14.80;99.90;;;;;;5055542;28;20290;-50
2023/03/13 12:02:39;;;;;;;3.53;1.53;;;14.90;99.90;;;;;;5048385;28;20222;-48
2023/03/13 12:05:37;;;;;;;2.80;1.20;;;14.90;99.90;;;;;;5047532;28;20273;-47
2023/03/13 12:08:09;;;;;;;4.40;1.80;;;14.90;99.90;;;;;;5040229;28;20202;-55
2023/03/13 12:10:41;;;;;;;1.60;1.43;;;14.90;99.90;;;;;;5039476;28;20199;-50
2023/03/13 12:13:13;;;;;;;2.40;1.30;;;14.90;99.90;;;;;;5048027;28;20776;-51
2023/03/13 12:15:43;;;;;;;2.60;1.40;;;15.10;99.90;;;;;;5052231;28;20218;-51
2023/03/13 12:18:18;;;;;;;1.80;1.10;;;15.30;99.90;;;;;;5028305;28;20198;-50
2023/03/13 12:20:52;;;;;;;3.00;1.40;;;15.40;99.90;;;;;;5051039;28;20615;-54
2023/03/13 12:23:23;;;;;;;2.23;1.53;;;15.40;99.90;;;;;;5054996;28;20298;-48
2023/03/13 12:25:54;;;;;;;4.10;1.20;;;15.30;99.90;;;;;;5039227;28;20207;-53
2023/03/13 12:28:30;;;;;;;4.77;1.67;;;15.30;99.90;;;;;;5052140;28;20190;-47
2023/03/13 12:31:03;;;;;;;2.03;1.20;;;15.30;99.90;;;;;;5042147;28;20278;-47
2023/03/13 12:33:35;;;;;;;2.27;1.53;;;15.30;99.90;;;;;;5035015;28;20230;-51
2023/03/13 12:36:08;;;;;;;3.97;1.30;;;15.30;99.90;;;;;;5051782;28;20187;-50
2023/03/13 12:38:44;;;;;;;2.70;1.50;;;15.20;99.90;;;;;;5046994;28;20287;-54
2023/03/13 12:41:19;;;;;;;2.37;1.50;;;15.20;99.90;;;;;;5038921;28;20249;-47
2023/03/13 12:43:50;;;;;;;2.80;1.30;;;15.20;99.90;;;;;;5051768;28;20218;-54
2023/03/13 12:46:35;;;;;;;2.97;1.40;;;15.30;99.90;;;;;;5050934;28;20829;-47
2023/03/13 12:49:21;;;;;;;1.80;1.30;;;15.40;99.90;;;;;;5040595;28;20199;-47
2023/03/13 12:52:07;;;;;;;4.97;1.20;;;15.30;99.90;;;;;;5048075;28;20221;-53
2023/03/13 12:54:44;;;;;;;2.80;1.20;;;15.40;99.90;;;;;;5044421;28;20266;-48
2023/03/13 12:57:25;;;;;;;3.33;1.50;;;15.40;99.90;;;;;;5036386;28;20209;-46
2023/03/13 12:59:55;;;;;;;3.77;1.20;;;15.30;99.90;;;;;;5047967;28;20198;-53
2023/03/13 13:02:24;;;;;;;2.03;1.37;;;15.20;99.90;;;;;;5039774;28;20209;-51
2023/03/13 13:04:54;;;;;;;1.77;1.60;;;15.10;99.90;;;;;;5049763;28;20216;-52
2023/03/13 13:07:26;;;;;;;2.97;1.53;;;15.00;99.90;;;;;;5053612;28;20222;-50
2023/03/13 13:10:18;;;;;;;6.13;1.50;;;15.10;99.90;;;;;;5043813;28;20210;-49
2023/03/13 13:12:47;;;;;;;2.70;1.37;;;15.20;99.90;;;;;;5050702;28;20224;-52
2023/03/13 13:15:24;;;;;;;1.87;1.30;;;15.20;99.90;;;;;;5053413;28;20211;-47